sensor_id;sensor_type;location;lat;lon;timestamp;P1;durP1;ratioP1;P2;durP2;ratioP2
43554;SDS011;35085;40.398;-3.702;2022-11-13T00:07:19;17.23;;;6.90;;
43554;SDS011;35085;40.398;-3.702;2022-11-13T00:17:46;12.60;;;5.75;;
43554;SDS011;35085;40.398;-3.702;2022-11-13T00:28:13;11.80;;;4.53;;
43554;SDS011;35085;40.398;-3.702;2022-11-13T00:38:33;10.82;;;4.20;;
43554;SDS011;35085;40.398;-3.702;2022-11-13T00:49:01;10.00;;;4.97;;
43554;SDS011;35085;40.398;-3.702;2022-11-13T00:59:28;9.32;;;4.57;;
43554;SDS011;35085;40.398;-3.702;2022-11-13T01:09:56;11.52;;;4.90;;
43554;SDS011;35085;40.398;-3.702;2022-11-13T01:20:22;9.45;;;4.15;;
43554;SDS011;35085;40.398;-3.702;2022-11-13T01:30:46;7.32;;;3.25;;
43554;SDS011;35085;40.398;-3.702;2022-11-13T01:41:12;9.60;;;3.55;;
43554;SDS011;35085;40.398;-3.702;2022-11-13T02:02:11;7.80;;;2.92;;
43554;SDS011;35085;40.398;-3.702;2022-11-13T02:12:40;7.78;;;3.05;;
43554;SDS011;35085;40.398;-3.702;2022-11-13T02:33:46;6.00;;;3.58;;
43554;SDS011;35085;40.398;-3.702;2022-11-13T02:44:14;12.00;;;3.88;;
43554;SDS011;35085;40.398;-3.702;2022-11-13T02:54:43;11.07;;;3.07;;
43554;SDS011;35085;40.398;-3.702;2022-11-13T03:05:29;9.07;;;3.97;;
43554;SDS011;35085;40.398;-3.702;2022-11-13T03:16:09;6.97;;;3.37;;
43554;SDS011;35085;40.398;-3.702;2022-11-13T03:26:39;7.60;;;3.13;;
43554;SDS011;35085;40.398;-3.702;2022-11-13T03:37:01;7.47;;;3.40;;
43554;SDS011;35085;40.398;-3.702;2022-11-13T03:47:33;6.75;;;3.55;;
43554;SDS011;35085;40.398;-3.702;2022-11-13T03:58:01;7.63;;;3.53;;
43554;SDS011;35085;40.398;-3.702;2022-11-13T04:08:27;7.85;;;3.92;;
43554;SDS011;35085;40.398;-3.702;2022-11-13T04:18:56;7.15;;;3.70;;
43554;SDS011;35085;40.398;-3.702;2022-11-13T04:29:24;8.50;;;3.97;;
43554;SDS011;35085;40.398;-3.702;2022-11-13T04:39:46;11.02;;;3.30;;
43554;SDS011;35085;40.398;-3.702;2022-11-13T04:50:15;5.47;;;3.00;;
43554;SDS011;35085;40.398;-3.702;2022-11-13T05:00:41;5.55;;;2.97;;
43554;SDS011;35085;40.398;-3.702;2022-11-13T05:21:33;6.17;;;2.93;;
43554;SDS011;35085;40.398;-3.702;2022-11-13T05:31:57;6.80;;;3.10;;
43554;SDS011;35085;40.398;-3.702;2022-11-13T05:42:17;6.00;;;3.70;;
43554;SDS011;35085;40.398;-3.702;2022-11-13T05:52:45;6.15;;;3.25;;
43554;SDS011;35085;40.398;-3.702;2022-11-13T06:03:13;7.03;;;3.42;;
43554;SDS011;35085;40.398;-3.702;2022-11-13T06:13:41;11.18;;;3.50;;
43554;SDS011;35085;40.398;-3.702;2022-11-13T06:24:10;8.93;;;3.50;;
43554;SDS011;35085;40.398;-3.702;2022-11-13T06:34:34;7.97;;;3.75;;
43554;SDS011;35085;40.398;-3.702;2022-11-13T06:44:55;8.80;;;3.50;;
43554;SDS011;35085;40.398;-3.702;2022-11-13T06:55:22;8.98;;;3.42;;
43554;SDS011;35085;40.398;-3.702;2022-11-13T07:05:43;7.03;;;3.42;;
43554;SDS011;35085;40.398;-3.702;2022-11-13T07:16:13;9.77;;;3.08;;
43554;SDS011;35085;40.398;-3.702;2022-11-13T07:26:34;9.70;;;3.28;;
43554;SDS011;35085;40.398;-3.702;2022-11-13T07:37:01;10.45;;;5.30;;
43554;SDS011;35085;40.398;-3.702;2022-11-13T07:47:30;16.57;;;7.23;;
43554;SDS011;35085;40.398;-3.702;2022-11-13T07:57:59;17.10;;;10.88;;
43554;SDS011;35085;40.398;-3.702;2022-11-13T08:08:27;13.88;;;10.00;;
43554;SDS011;35085;40.398;-3.702;2022-11-13T08:18:54;15.65;;;4.40;;
43554;SDS011;35085;40.398;-3.702;2022-11-13T08:29:15;18.70;;;12.93;;
43554;SDS011;35085;40.398;-3.702;2022-11-13T08:39:42;6.97;;;4.03;;
43554;SDS011;35085;40.398;-3.702;2022-11-13T08:50:03;11.52;;;7.20;;
43554;SDS011;35085;40.398;-3.702;2022-11-13T09:00:29;15.05;;;8.48;;
43554;SDS011;35085;40.398;-3.702;2022-11-13T09:10:50;17.13;;;11.80;;
43554;SDS011;35085;40.398;-3.702;2022-11-13T09:21:18;21.42;;;12.82;;
43554;SDS011;35085;40.398;-3.702;2022-11-13T09:31:38;11.40;;;5.60;;
43554;SDS011;35085;40.398;-3.702;2022-11-13T09:42:23;13.65;;;4.88;;
43554;SDS011;35085;40.398;-3.702;2022-11-13T09:52:51;13.45;;;6.13;;
43554;SDS011;35085;40.398;-3.702;2022-11-13T10:03:35;23.20;;;13.75;;
43554;SDS011;35085;40.398;-3.702;2022-11-13T10:13:57;12.98;;;5.25;;
43554;SDS011;35085;40.398;-3.702;2022-11-13T10:24:29;10.90;;;4.18;;
43554;SDS011;35085;40.398;-3.702;2022-11-13T10:35:00;12.23;;;4.57;;
43554;SDS011;35085;40.398;-3.702;2022-11-13T10:45:31;9.88;;;5.53;;
43554;SDS011;35085;40.398;-3.702;2022-11-13T10:55:58;8.65;;;4.93;;
43554;SDS011;35085;40.398;-3.702;2022-11-13T11:06:35;7.15;;;2.72;;
43554;SDS011;35085;40.398;-3.702;2022-11-13T11:16:56;9.82;;;3.83;;
43554;SDS011;35085;40.398;-3.702;2022-11-13T11:27:25;16.38;;;9.77;;
43554;SDS011;35085;40.398;-3.702;2022-11-13T11:48:22;14.77;;;4.20;;
43554;SDS011;35085;40.398;-3.702;2022-11-13T12:19:45;13.05;;;4.13;;
43554;SDS011;35085;40.398;-3.702;2022-11-13T12:30:16;9.35;;;4.32;;
43554;SDS011;35085;40.398;-3.702;2022-11-13T12:51:17;9.52;;;5.10;;
43554;SDS011;35085;40.398;-3.702;2022-11-13T13:01:43;17.92;;;10.15;;
43554;SDS011;35085;40.398;-3.702;2022-11-13T13:12:11;15.77;;;7.88;;
43554;SDS011;35085;40.398;-3.702;2022-11-13T13:22:35;13.80;;;6.40;;
43554;SDS011;35085;40.398;-3.702;2022-11-13T13:33:05;11.48;;;4.13;;
43554;SDS011;35085;40.398;-3.702;2022-11-13T13:53:57;16.95;;;7.88;;
43554;SDS011;35085;40.398;-3.702;2022-11-13T14:04:22;12.45;;;4.45;;
43554;SDS011;35085;40.398;-3.702;2022-11-13T14:14:49;10.25;;;4.10;;
43554;SDS011;35085;40.398;-3.702;2022-11-13T14:25:21;10.18;;;4.50;;
43554;SDS011;35085;40.398;-3.702;2022-11-13T14:35:48;10.55;;;5.00;;
43554;SDS011;35085;40.398;-3.702;2022-11-13T14:46:24;15.27;;;6.32;;
43554;SDS011;35085;40.398;-3.702;2022-11-13T14:56:45;11.32;;;4.72;;
43554;SDS011;35085;40.398;-3.702;2022-11-13T15:07:18;12.23;;;4.78;;
43554;SDS011;35085;40.398;-3.702;2022-11-13T15:17:38;14.40;;;4.40;;
43554;SDS011;35085;40.398;-3.702;2022-11-13T15:28:04;11.35;;;4.95;;
43554;SDS011;35085;40.398;-3.702;2022-11-13T15:38:32;10.40;;;4.00;;
43554;SDS011;35085;40.398;-3.702;2022-11-13T15:48:59;15.15;;;5.13;;
43554;SDS011;35085;40.398;-3.702;2022-11-13T15:59:26;12.98;;;3.90;;
43554;SDS011;35085;40.398;-3.702;2022-11-13T16:09:55;11.45;;;4.07;;
43554;SDS011;35085;40.398;-3.702;2022-11-13T16:20:22;17.17;;;4.47;;
43554;SDS011;35085;40.398;-3.702;2022-11-13T16:30:44;12.63;;;5.57;;
43554;SDS011;35085;40.398;-3.702;2022-11-13T16:41:09;13.48;;;4.22;;
43554;SDS011;35085;40.398;-3.702;2022-11-13T16:51:37;14.60;;;6.50;;
43554;SDS011;35085;40.398;-3.702;2022-11-13T17:02:12;14.15;;;5.63;;
43554;SDS011;35085;40.398;-3.702;2022-11-13T17:12:34;13.00;;;5.03;;
43554;SDS011;35085;40.398;-3.702;2022-11-13T17:23:01;10.70;;;4.97;;
43554;SDS011;35085;40.398;-3.702;2022-11-13T17:33:29;15.15;;;7.43;;
43554;SDS011;35085;40.398;-3.702;2022-11-13T17:43:57;12.00;;;5.20;;
43554;SDS011;35085;40.398;-3.702;2022-11-13T17:54:24;19.50;;;8.20;;
43554;SDS011;35085;40.398;-3.702;2022-11-13T18:04:52;16.63;;;6.95;;
43554;SDS011;35085;40.398;-3.702;2022-11-13T18:15:14;25.40;;;7.00;;
43554;SDS011;35085;40.398;-3.702;2022-11-13T18:25:42;19.83;;;8.75;;
43554;SDS011;35085;40.398;-3.702;2022-11-13T18:36:09;21.17;;;8.38;;
43554;SDS011;35085;40.398;-3.702;2022-11-13T18:46:37;35.58;;;11.32;;
43554;SDS011;35085;40.398;-3.702;2022-11-13T18:57:05;26.52;;;9.88;;
43554;SDS011;35085;40.398;-3.702;2022-11-13T19:07:33;23.27;;;9.27;;
43554;SDS011;35085;40.398;-3.702;2022-11-13T19:18:06;24.52;;;11.00;;
43554;SDS011;35085;40.398;-3.702;2022-11-13T19:28:33;24.80;;;12.00;;
43554;SDS011;35085;40.398;-3.702;2022-11-13T19:38:58;35.25;;;14.82;;
43554;SDS011;35085;40.398;-3.702;2022-11-13T19:49:28;22.48;;;8.35;;
43554;SDS011;35085;40.398;-3.702;2022-11-13T19:59:55;26.98;;;13.05;;
43554;SDS011;35085;40.398;-3.702;2022-11-13T20:10:24;25.83;;;12.25;;
43554;SDS011;35085;40.398;-3.702;2022-11-13T20:20:53;30.70;;;10.60;;
43554;SDS011;35085;40.398;-3.702;2022-11-13T20:31:22;35.92;;;12.52;;
43554;SDS011;35085;40.398;-3.702;2022-11-13T20:41:46;22.10;;;10.63;;
43554;SDS011;35085;40.398;-3.702;2022-11-13T20:52:13;19.38;;;10.10;;
43554;SDS011;35085;40.398;-3.702;2022-11-13T21:02:40;22.23;;;9.35;;
43554;SDS011;35085;40.398;-3.702;2022-11-13T21:13:07;14.68;;;7.97;;
43554;SDS011;35085;40.398;-3.702;2022-11-13T21:23:35;16.38;;;8.40;;
43554;SDS011;35085;40.398;-3.702;2022-11-13T21:34:02;16.65;;;8.98;;
43554;SDS011;35085;40.398;-3.702;2022-11-13T21:44:30;19.42;;;10.15;;
43554;SDS011;35085;40.398;-3.702;2022-11-13T21:54:58;20.60;;;9.75;;
43554;SDS011;35085;40.398;-3.702;2022-11-13T22:05:19;15.70;;;8.80;;
43554;SDS011;35085;40.398;-3.702;2022-11-13T22:15:46;22.77;;;9.63;;
43554;SDS011;35085;40.398;-3.702;2022-11-13T22:26:14;21.35;;;8.98;;
43554;SDS011;35085;40.398;-3.702;2022-11-13T22:36:38;24.95;;;8.35;;
43554;SDS011;35085;40.398;-3.702;2022-11-13T22:47:05;15.32;;;8.00;;
43554;SDS011;35085;40.398;-3.702;2022-11-13T22:57:26;15.10;;;8.52;;
43554;SDS011;35085;40.398;-3.702;2022-11-13T23:07:53;16.40;;;8.18;;
43554;SDS011;35085;40.398;-3.702;2022-11-13T23:18:14;14.50;;;8.25;;
43554;SDS011;35085;40.398;-3.702;2022-11-13T23:28:41;18.90;;;7.93;;
43554;SDS011;35085;40.398;-3.702;2022-11-13T23:39:02;17.05;;;8.13;;
43554;SDS011;35085;40.398;-3.702;2022-11-13T23:49:29;17.88;;;7.72;;
43554;SDS011;35085;40.398;-3.702;2022-11-13T23:59:56;16.15;;;7.88;;
